sensor_id;sensor_type;location;lat;lon;timestamp;P1;durP1;ratioP1;P2;durP2;ratioP2
22160;SDS011;49035;48.812;11.762;2022-12-18T00:01:02;60.13;;;22.33;;
22160;SDS011;49035;48.812;11.762;2022-12-18T00:03:32;75.40;;;27.20;;
22160;SDS011;49035;48.812;11.762;2022-12-18T00:05:58;68.33;;;25.80;;
22160;SDS011;49035;48.812;11.762;2022-12-18T00:08:24;73.37;;;24.83;;
22160;SDS011;49035;48.812;11.762;2022-12-18T00:10:49;69.43;;;23.47;;
22160;SDS011;49035;48.812;11.762;2022-12-18T00:13:15;65.57;;;23.57;;
22160;SDS011;49035;48.812;11.762;2022-12-18T00:15:41;70.53;;;23.57;;
22160;SDS011;49035;48.812;11.762;2022-12-18T00:18:07;75.07;;;24.60;;
22160;SDS011;49035;48.812;11.762;2022-12-18T00:20:37;62.83;;;23.23;;
22160;SDS011;49035;48.812;11.762;2022-12-18T00:23:03;66.37;;;24.17;;
22160;SDS011;49035;48.812;11.762;2022-12-18T00:25:32;68.93;;;24.63;;
22160;SDS011;49035;48.812;11.762;2022-12-18T00:27:58;69.77;;;23.30;;
22160;SDS011;49035;48.812;11.762;2022-12-18T00:30:24;59.60;;;21.97;;
22160;SDS011;49035;48.812;11.762;2022-12-18T00:32:49;70.17;;;23.23;;
22160;SDS011;49035;48.812;11.762;2022-12-18T00:35:15;65.27;;;23.57;;
22160;SDS011;49035;48.812;11.762;2022-12-18T00:37:41;73.97;;;23.37;;
22160;SDS011;49035;48.812;11.762;2022-12-18T00:40:06;64.70;;;24.17;;
22160;SDS011;49035;48.812;11.762;2022-12-18T00:42:33;68.43;;;23.53;;
22160;SDS011;49035;48.812;11.762;2022-12-18T00:45:17;71.03;;;24.77;;
22160;SDS011;49035;48.812;11.762;2022-12-18T00:47:43;67.00;;;23.27;;
22160;SDS011;49035;48.812;11.762;2022-12-18T00:50:08;79.60;;;25.47;;
22160;SDS011;49035;48.812;11.762;2022-12-18T00:52:34;77.33;;;25.43;;
22160;SDS011;49035;48.812;11.762;2022-12-18T00:55:00;62.63;;;22.90;;
22160;SDS011;49035;48.812;11.762;2022-12-18T00:57:25;68.57;;;23.03;;
22160;SDS011;49035;48.812;11.762;2022-12-18T00:59:51;59.20;;;23.20;;
22160;SDS011;49035;48.812;11.762;2022-12-18T01:02:16;58.37;;;20.27;;
22160;SDS011;49035;48.812;11.762;2022-12-18T01:04:42;58.67;;;21.93;;
22160;SDS011;49035;48.812;11.762;2022-12-18T01:07:08;63.43;;;20.80;;
22160;SDS011;49035;48.812;11.762;2022-12-18T01:09:33;55.70;;;20.53;;
22160;SDS011;49035;48.812;11.762;2022-12-18T01:11:59;60.77;;;20.00;;
22160;SDS011;49035;48.812;11.762;2022-12-18T01:14:25;57.67;;;20.33;;
22160;SDS011;49035;48.812;11.762;2022-12-18T01:16:51;57.90;;;20.83;;
22160;SDS011;49035;48.812;11.762;2022-12-18T01:19:16;57.37;;;20.10;;
22160;SDS011;49035;48.812;11.762;2022-12-18T01:21:42;44.77;;;18.53;;
22160;SDS011;49035;48.812;11.762;2022-12-18T01:24:10;63.27;;;20.37;;
22160;SDS011;49035;48.812;11.762;2022-12-18T01:26:37;59.03;;;20.63;;
22160;SDS011;49035;48.812;11.762;2022-12-18T01:29:03;55.13;;;20.20;;
22160;SDS011;49035;48.812;11.762;2022-12-18T01:31:30;57.40;;;21.30;;
22160;SDS011;49035;48.812;11.762;2022-12-18T01:33:57;59.00;;;22.00;;
22160;SDS011;49035;48.812;11.762;2022-12-18T01:36:27;48.43;;;18.70;;
22160;SDS011;49035;48.812;11.762;2022-12-18T01:38:54;58.87;;;20.07;;
22160;SDS011;49035;48.812;11.762;2022-12-18T01:41:25;56.17;;;19.90;;
22160;SDS011;49035;48.812;11.762;2022-12-18T01:43:52;61.87;;;23.67;;
22160;SDS011;49035;48.812;11.762;2022-12-18T01:46:22;70.77;;;21.67;;
22160;SDS011;49035;48.812;11.762;2022-12-18T01:48:50;62.73;;;21.47;;
22160;SDS011;49035;48.812;11.762;2022-12-18T01:51:24;58.90;;;22.90;;
22160;SDS011;49035;48.812;11.762;2022-12-18T01:53:52;62.63;;;23.37;;
22160;SDS011;49035;48.812;11.762;2022-12-18T01:56:18;57.37;;;20.37;;
22160;SDS011;49035;48.812;11.762;2022-12-18T02:01:23;54.50;;;21.40;;
22160;SDS011;49035;48.812;11.762;2022-12-18T02:03:50;61.73;;;22.27;;
22160;SDS011;49035;48.812;11.762;2022-12-18T02:06:37;62.80;;;22.70;;
22160;SDS011;49035;48.812;11.762;2022-12-18T02:09:13;64.47;;;19.90;;
22160;SDS011;49035;48.812;11.762;2022-12-18T02:11:53;63.37;;;22.07;;
22160;SDS011;49035;48.812;11.762;2022-12-18T02:14:39;59.00;;;22.43;;
22160;SDS011;49035;48.812;11.762;2022-12-18T02:17:18;61.17;;;21.30;;
22160;SDS011;49035;48.812;11.762;2022-12-18T02:25:55;60.80;;;20.40;;
22160;SDS011;49035;48.812;11.762;2022-12-18T02:28:34;52.97;;;18.37;;
22160;SDS011;49035;48.812;11.762;2022-12-18T02:31:15;59.30;;;20.67;;
22160;SDS011;49035;48.812;11.762;2022-12-18T02:33:46;66.10;;;20.90;;
22160;SDS011;49035;48.812;11.762;2022-12-18T02:36:14;62.17;;;22.37;;
22160;SDS011;49035;48.812;11.762;2022-12-18T02:38:42;59.10;;;20.30;;
22160;SDS011;49035;48.812;11.762;2022-12-18T02:41:08;62.93;;;21.67;;
22160;SDS011;49035;48.812;11.762;2022-12-18T02:43:35;61.67;;;23.27;;
22160;SDS011;49035;48.812;11.762;2022-12-18T02:46:00;60.23;;;20.37;;
22160;SDS011;49035;48.812;11.762;2022-12-18T02:48:52;51.63;;;20.03;;
22160;SDS011;49035;48.812;11.762;2022-12-18T02:51:30;54.43;;;19.93;;
22160;SDS011;49035;48.812;11.762;2022-12-18T02:54:13;53.27;;;19.87;;
22160;SDS011;49035;48.812;11.762;2022-12-18T02:56:49;67.07;;;20.23;;
22160;SDS011;49035;48.812;11.762;2022-12-18T02:59:41;56.97;;;20.83;;
22160;SDS011;49035;48.812;11.762;2022-12-18T03:05:13;51.83;;;20.10;;
22160;SDS011;49035;48.812;11.762;2022-12-18T03:10:21;51.47;;;20.33;;
22160;SDS011;49035;48.812;11.762;2022-12-18T03:12:52;54.17;;;21.40;;
22160;SDS011;49035;48.812;11.762;2022-12-18T03:15:47;59.23;;;21.23;;
22160;SDS011;49035;48.812;11.762;2022-12-18T03:18:16;49.97;;;18.90;;
22160;SDS011;49035;48.812;11.762;2022-12-18T03:21:04;61.67;;;20.10;;
22160;SDS011;49035;48.812;11.762;2022-12-18T03:23:34;50.00;;;19.30;;
22160;SDS011;49035;48.812;11.762;2022-12-18T03:26:06;49.87;;;20.47;;
22160;SDS011;49035;48.812;11.762;2022-12-18T03:28:36;50.93;;;20.37;;
22160;SDS011;49035;48.812;11.762;2022-12-18T03:31:07;58.33;;;19.13;;
22160;SDS011;49035;48.812;11.762;2022-12-18T03:33:45;52.90;;;20.27;;
22160;SDS011;49035;48.812;11.762;2022-12-18T03:36:19;50.97;;;18.53;;
22160;SDS011;49035;48.812;11.762;2022-12-18T03:38:45;53.97;;;19.33;;
22160;SDS011;49035;48.812;11.762;2022-12-18T03:41:15;56.97;;;19.20;;
22160;SDS011;49035;48.812;11.762;2022-12-18T03:43:52;56.57;;;20.87;;
22160;SDS011;49035;48.812;11.762;2022-12-18T03:46:41;54.67;;;20.30;;
22160;SDS011;49035;48.812;11.762;2022-12-18T03:49:25;52.70;;;20.30;;
22160;SDS011;49035;48.812;11.762;2022-12-18T03:52:04;60.83;;;20.37;;
22160;SDS011;49035;48.812;11.762;2022-12-18T03:54:36;54.23;;;19.57;;
22160;SDS011;49035;48.812;11.762;2022-12-18T03:57:07;57.87;;;19.60;;
22160;SDS011;49035;48.812;11.762;2022-12-18T03:59:38;56.00;;;19.53;;
22160;SDS011;49035;48.812;11.762;2022-12-18T04:02:05;56.10;;;21.13;;
22160;SDS011;49035;48.812;11.762;2022-12-18T04:04:33;58.30;;;19.33;;
22160;SDS011;49035;48.812;11.762;2022-12-18T04:07:01;52.93;;;19.53;;
22160;SDS011;49035;48.812;11.762;2022-12-18T04:09:28;58.47;;;20.30;;
22160;SDS011;49035;48.812;11.762;2022-12-18T04:11:56;50.93;;;17.93;;
22160;SDS011;49035;48.812;11.762;2022-12-18T04:14:22;53.70;;;19.60;;
22160;SDS011;49035;48.812;11.762;2022-12-18T04:16:47;59.30;;;19.30;;
22160;SDS011;49035;48.812;11.762;2022-12-18T04:19:13;62.17;;;19.33;;
22160;SDS011;49035;48.812;11.762;2022-12-18T04:21:39;55.10;;;19.60;;
22160;SDS011;49035;48.812;11.762;2022-12-18T04:24:04;57.17;;;18.30;;
22160;SDS011;49035;48.812;11.762;2022-12-18T04:26:30;60.27;;;22.20;;
22160;SDS011;49035;48.812;11.762;2022-12-18T04:28:56;60.67;;;20.37;;
22160;SDS011;49035;48.812;11.762;2022-12-18T04:31:22;59.90;;;21.03;;
22160;SDS011;49035;48.812;11.762;2022-12-18T04:33:47;52.70;;;19.60;;
22160;SDS011;49035;48.812;11.762;2022-12-18T04:36:13;54.50;;;19.27;;
22160;SDS011;49035;48.812;11.762;2022-12-18T04:38:39;62.83;;;21.87;;
22160;SDS011;49035;48.812;11.762;2022-12-18T04:41:04;61.30;;;20.23;;
22160;SDS011;49035;48.812;11.762;2022-12-18T04:43:30;58.10;;;20.30;;
22160;SDS011;49035;48.812;11.762;2022-12-18T04:46:01;58.33;;;21.33;;
22160;SDS011;49035;48.812;11.762;2022-12-18T04:48:31;67.10;;;22.03;;
22160;SDS011;49035;48.812;11.762;2022-12-18T04:50:57;55.77;;;20.13;;
22160;SDS011;49035;48.812;11.762;2022-12-18T04:53:23;54.10;;;19.63;;
22160;SDS011;49035;48.812;11.762;2022-12-18T04:55:48;53.50;;;21.43;;
22160;SDS011;49035;48.812;11.762;2022-12-18T04:58:14;62.97;;;20.53;;
22160;SDS011;49035;48.812;11.762;2022-12-18T05:00:40;47.23;;;17.73;;
22160;SDS011;49035;48.812;11.762;2022-12-18T05:03:05;55.20;;;19.77;;
22160;SDS011;49035;48.812;11.762;2022-12-18T05:05:31;51.77;;;20.93;;
22160;SDS011;49035;48.812;11.762;2022-12-18T05:07:59;51.03;;;18.73;;
22160;SDS011;49035;48.812;11.762;2022-12-18T05:10:24;53.00;;;18.97;;
22160;SDS011;49035;48.812;11.762;2022-12-18T05:12:50;57.53;;;20.63;;
22160;SDS011;49035;48.812;11.762;2022-12-18T05:15:31;52.80;;;19.33;;
22160;SDS011;49035;48.812;11.762;2022-12-18T05:17:58;55.17;;;18.53;;
22160;SDS011;49035;48.812;11.762;2022-12-18T05:20:24;53.03;;;19.33;;
22160;SDS011;49035;48.812;11.762;2022-12-18T05:22:51;48.93;;;17.97;;
22160;SDS011;49035;48.812;11.762;2022-12-18T05:25:17;66.37;;;23.67;;
22160;SDS011;49035;48.812;11.762;2022-12-18T05:27:43;52.50;;;19.17;;
22160;SDS011;49035;48.812;11.762;2022-12-18T05:30:10;55.07;;;20.47;;
22160;SDS011;49035;48.812;11.762;2022-12-18T05:32:36;54.40;;;19.30;;
22160;SDS011;49035;48.812;11.762;2022-12-18T05:35:02;49.80;;;19.33;;
22160;SDS011;49035;48.812;11.762;2022-12-18T05:37:31;54.07;;;19.67;;
22160;SDS011;49035;48.812;11.762;2022-12-18T05:39:56;51.40;;;19.03;;
22160;SDS011;49035;48.812;11.762;2022-12-18T05:42:22;50.37;;;17.50;;
22160;SDS011;49035;48.812;11.762;2022-12-18T05:44:47;50.23;;;19.30;;
22160;SDS011;49035;48.812;11.762;2022-12-18T05:47:13;51.10;;;19.13;;
22160;SDS011;49035;48.812;11.762;2022-12-18T05:49:39;49.40;;;17.90;;
22160;SDS011;49035;48.812;11.762;2022-12-18T05:52:04;45.60;;;18.00;;
22160;SDS011;49035;48.812;11.762;2022-12-18T05:54:30;50.77;;;18.20;;
22160;SDS011;49035;48.812;11.762;2022-12-18T05:56:56;45.13;;;17.43;;
22160;SDS011;49035;48.812;11.762;2022-12-18T05:59:22;44.37;;;16.10;;
22160;SDS011;49035;48.812;11.762;2022-12-18T06:01:47;44.97;;;17.80;;
22160;SDS011;49035;48.812;11.762;2022-12-18T06:04:13;48.97;;;18.93;;
22160;SDS011;49035;48.812;11.762;2022-12-18T06:06:39;49.27;;;18.67;;
22160;SDS011;49035;48.812;11.762;2022-12-18T06:09:05;45.60;;;17.63;;
22160;SDS011;49035;48.812;11.762;2022-12-18T06:11:33;48.57;;;17.43;;
22160;SDS011;49035;48.812;11.762;2022-12-18T06:14:00;48.70;;;18.80;;
22160;SDS011;49035;48.812;11.762;2022-12-18T06:16:27;47.23;;;18.87;;
22160;SDS011;49035;48.812;11.762;2022-12-18T06:19:00;48.73;;;18.00;;
22160;SDS011;49035;48.812;11.762;2022-12-18T06:21:28;50.97;;;17.93;;
22160;SDS011;49035;48.812;11.762;2022-12-18T06:23:54;40.53;;;15.83;;
22160;SDS011;49035;48.812;11.762;2022-12-18T06:26:20;45.07;;;18.00;;
22160;SDS011;49035;48.812;11.762;2022-12-18T06:28:46;47.37;;;18.63;;
22160;SDS011;49035;48.812;11.762;2022-12-18T06:31:12;50.03;;;19.07;;
22160;SDS011;49035;48.812;11.762;2022-12-18T06:33:38;50.93;;;18.57;;
22160;SDS011;49035;48.812;11.762;2022-12-18T06:36:09;45.07;;;18.23;;
22160;SDS011;49035;48.812;11.762;2022-12-18T06:38:36;51.17;;;19.63;;
22160;SDS011;49035;48.812;11.762;2022-12-18T06:41:07;51.13;;;19.70;;
22160;SDS011;49035;48.812;11.762;2022-12-18T06:43:33;46.13;;;17.53;;
22160;SDS011;49035;48.812;11.762;2022-12-18T06:45:59;43.47;;;18.30;;
22160;SDS011;49035;48.812;11.762;2022-12-18T06:48:26;37.70;;;15.63;;
22160;SDS011;49035;48.812;11.762;2022-12-18T06:50:52;48.87;;;17.77;;
22160;SDS011;49035;48.812;11.762;2022-12-18T06:53:17;43.53;;;16.67;;
22160;SDS011;49035;48.812;11.762;2022-12-18T06:55:43;44.37;;;18.40;;
22160;SDS011;49035;48.812;11.762;2022-12-18T06:58:08;49.97;;;16.47;;
22160;SDS011;49035;48.812;11.762;2022-12-18T07:00:34;44.50;;;17.60;;
22160;SDS011;49035;48.812;11.762;2022-12-18T07:03:00;41.57;;;17.00;;
22160;SDS011;49035;48.812;11.762;2022-12-18T07:05:25;46.40;;;17.20;;
22160;SDS011;49035;48.812;11.762;2022-12-18T07:07:51;57.50;;;18.03;;
22160;SDS011;49035;48.812;11.762;2022-12-18T07:10:17;47.20;;;17.53;;
22160;SDS011;49035;48.812;11.762;2022-12-18T07:12:42;42.83;;;16.87;;
22160;SDS011;49035;48.812;11.762;2022-12-18T07:15:08;40.80;;;17.50;;
22160;SDS011;49035;48.812;11.762;2022-12-18T07:17:34;49.00;;;18.17;;
22160;SDS011;49035;48.812;11.762;2022-12-18T07:20:00;38.97;;;17.73;;
22160;SDS011;49035;48.812;11.762;2022-12-18T07:22:26;51.50;;;19.30;;
22160;SDS011;49035;48.812;11.762;2022-12-18T07:24:52;44.33;;;17.67;;
22160;SDS011;49035;48.812;11.762;2022-12-18T07:27:17;43.37;;;17.70;;
22160;SDS011;49035;48.812;11.762;2022-12-18T07:29:43;43.73;;;18.13;;
22160;SDS011;49035;48.812;11.762;2022-12-18T07:32:09;44.57;;;18.83;;
22160;SDS011;49035;48.812;11.762;2022-12-18T07:34:34;49.20;;;19.93;;
22160;SDS011;49035;48.812;11.762;2022-12-18T07:37:00;38.57;;;17.67;;
22160;SDS011;49035;48.812;11.762;2022-12-18T07:39:26;48.97;;;18.27;;
22160;SDS011;49035;48.812;11.762;2022-12-18T07:41:51;51.97;;;17.33;;
22160;SDS011;49035;48.812;11.762;2022-12-18T07:44:36;50.93;;;17.47;;
22160;SDS011;49035;48.812;11.762;2022-12-18T07:47:02;47.50;;;19.57;;
22160;SDS011;49035;48.812;11.762;2022-12-18T07:49:28;44.60;;;19.43;;
22160;SDS011;49035;48.812;11.762;2022-12-18T07:51:54;52.07;;;19.23;;
22160;SDS011;49035;48.812;11.762;2022-12-18T07:54:21;53.07;;;18.97;;
22160;SDS011;49035;48.812;11.762;2022-12-18T07:56:47;47.00;;;18.47;;
22160;SDS011;49035;48.812;11.762;2022-12-18T07:59:13;44.00;;;17.53;;
22160;SDS011;49035;48.812;11.762;2022-12-18T08:01:39;51.50;;;18.93;;
22160;SDS011;49035;48.812;11.762;2022-12-18T08:04:04;48.03;;;19.67;;
22160;SDS011;49035;48.812;11.762;2022-12-18T08:06:30;47.37;;;18.97;;
22160;SDS011;49035;48.812;11.762;2022-12-18T08:08:56;43.33;;;17.90;;
22160;SDS011;49035;48.812;11.762;2022-12-18T08:11:23;49.80;;;17.57;;
22160;SDS011;49035;48.812;11.762;2022-12-18T08:13:50;48.13;;;18.77;;
22160;SDS011;49035;48.812;11.762;2022-12-18T08:16:16;44.37;;;16.90;;
22160;SDS011;49035;48.812;11.762;2022-12-18T08:18:42;41.80;;;17.17;;
22160;SDS011;49035;48.812;11.762;2022-12-18T08:21:09;43.70;;;18.97;;
22160;SDS011;49035;48.812;11.762;2022-12-18T08:23:43;36.63;;;13.37;;
22160;SDS011;49035;48.812;11.762;2022-12-18T08:26:10;44.03;;;17.53;;
22160;SDS011;49035;48.812;11.762;2022-12-18T08:28:36;42.50;;;17.47;;
22160;SDS011;49035;48.812;11.762;2022-12-18T08:31:02;46.77;;;17.73;;
22160;SDS011;49035;48.812;11.762;2022-12-18T08:33:28;48.20;;;18.07;;
22160;SDS011;49035;48.812;11.762;2022-12-18T08:35:54;39.17;;;17.13;;
22160;SDS011;49035;48.812;11.762;2022-12-18T08:38:20;49.70;;;19.27;;
22160;SDS011;49035;48.812;11.762;2022-12-18T08:40:45;50.90;;;16.77;;
22160;SDS011;49035;48.812;11.762;2022-12-18T08:43:11;45.70;;;16.47;;
22160;SDS011;49035;48.812;11.762;2022-12-18T08:45:56;43.07;;;16.93;;
22160;SDS011;49035;48.812;11.762;2022-12-18T08:48:22;40.23;;;15.87;;
22160;SDS011;49035;48.812;11.762;2022-12-18T08:50:54;41.93;;;17.20;;
22160;SDS011;49035;48.812;11.762;2022-12-18T08:53:22;43.93;;;16.87;;
22160;SDS011;49035;48.812;11.762;2022-12-18T08:55:51;45.83;;;19.30;;
22160;SDS011;49035;48.812;11.762;2022-12-18T08:58:17;46.77;;;18.03;;
22160;SDS011;49035;48.812;11.762;2022-12-18T09:00:43;46.17;;;18.97;;
22160;SDS011;49035;48.812;11.762;2022-12-18T09:03:12;47.50;;;18.90;;
22160;SDS011;49035;48.812;11.762;2022-12-18T09:05:39;51.10;;;19.17;;
22160;SDS011;49035;48.812;11.762;2022-12-18T09:08:04;43.43;;;18.47;;
22160;SDS011;49035;48.812;11.762;2022-12-18T09:10:30;43.87;;;18.63;;
22160;SDS011;49035;48.812;11.762;2022-12-18T09:12:56;49.07;;;18.23;;
22160;SDS011;49035;48.812;11.762;2022-12-18T09:15:22;46.57;;;18.07;;
22160;SDS011;49035;48.812;11.762;2022-12-18T09:17:48;43.57;;;18.90;;
22160;SDS011;49035;48.812;11.762;2022-12-18T09:20:14;40.37;;;15.63;;
22160;SDS011;49035;48.812;11.762;2022-12-18T09:22:41;34.83;;;15.87;;
22160;SDS011;49035;48.812;11.762;2022-12-18T09:25:07;43.10;;;16.43;;
22160;SDS011;49035;48.812;11.762;2022-12-18T09:27:33;42.77;;;17.67;;
22160;SDS011;49035;48.812;11.762;2022-12-18T09:29:59;42.90;;;17.43;;
22160;SDS011;49035;48.812;11.762;2022-12-18T09:32:25;42.73;;;17.10;;
22160;SDS011;49035;48.812;11.762;2022-12-18T09:34:50;44.33;;;17.33;;
22160;SDS011;49035;48.812;11.762;2022-12-18T09:37:16;38.83;;;16.63;;
22160;SDS011;49035;48.812;11.762;2022-12-18T09:39:41;46.00;;;16.87;;
22160;SDS011;49035;48.812;11.762;2022-12-18T09:42:09;44.40;;;17.80;;
22160;SDS011;49035;48.812;11.762;2022-12-18T09:44:44;41.80;;;17.60;;
22160;SDS011;49035;48.812;11.762;2022-12-18T09:47:18;34.37;;;16.17;;
22160;SDS011;49035;48.812;11.762;2022-12-18T09:49:46;40.63;;;17.07;;
22160;SDS011;49035;48.812;11.762;2022-12-18T09:52:19;40.37;;;16.00;;
22160;SDS011;49035;48.812;11.762;2022-12-18T09:55:21;38.50;;;17.07;;
22160;SDS011;49035;48.812;11.762;2022-12-18T09:57:52;39.03;;;17.53;;
22160;SDS011;49035;48.812;11.762;2022-12-18T10:00:22;54.33;;;24.03;;
22160;SDS011;49035;48.812;11.762;2022-12-18T10:02:50;41.67;;;17.57;;
22160;SDS011;49035;48.812;11.762;2022-12-18T10:10:53;42.90;;;20.33;;
22160;SDS011;49035;48.812;11.762;2022-12-18T10:13:33;35.63;;;16.47;;
22160;SDS011;49035;48.812;11.762;2022-12-18T10:21:57;39.23;;;15.83;;
22160;SDS011;49035;48.812;11.762;2022-12-18T10:27:14;37.63;;;16.97;;
22160;SDS011;49035;48.812;11.762;2022-12-18T10:29:42;39.37;;;18.00;;
22160;SDS011;49035;48.812;11.762;2022-12-18T10:32:13;38.73;;;18.57;;
22160;SDS011;49035;48.812;11.762;2022-12-18T10:34:47;31.73;;;15.13;;
22160;SDS011;49035;48.812;11.762;2022-12-18T10:37:18;41.40;;;15.30;;
22160;SDS011;49035;48.812;11.762;2022-12-18T10:39:46;32.47;;;14.80;;
22160;SDS011;49035;48.812;11.762;2022-12-18T10:42:29;38.87;;;15.90;;
22160;SDS011;49035;48.812;11.762;2022-12-18T10:45:08;34.23;;;15.53;;
22160;SDS011;49035;48.812;11.762;2022-12-18T10:47:46;34.47;;;14.83;;
22160;SDS011;49035;48.812;11.762;2022-12-18T10:50:33;36.20;;;14.07;;
22160;SDS011;49035;48.812;11.762;2022-12-18T10:53:02;36.17;;;15.10;;
22160;SDS011;49035;48.812;11.762;2022-12-18T10:55:31;34.80;;;14.67;;
22160;SDS011;49035;48.812;11.762;2022-12-18T10:58:16;32.20;;;14.97;;
22160;SDS011;49035;48.812;11.762;2022-12-18T11:06:22;30.30;;;13.67;;
22160;SDS011;49035;48.812;11.762;2022-12-18T11:11:54;29.40;;;14.70;;
22160;SDS011;49035;48.812;11.762;2022-12-18T11:14:26;31.67;;;14.07;;
22160;SDS011;49035;48.812;11.762;2022-12-18T11:17:16;31.57;;;15.37;;
22160;SDS011;49035;48.812;11.762;2022-12-18T11:19:54;28.37;;;13.77;;
22160;SDS011;49035;48.812;11.762;2022-12-18T11:22:28;31.10;;;13.83;;
22160;SDS011;49035;48.812;11.762;2022-12-18T11:27:37;33.67;;;15.53;;
22160;SDS011;49035;48.812;11.762;2022-12-18T11:30:21;28.77;;;14.63;;
22160;SDS011;49035;48.812;11.762;2022-12-18T11:33:00;33.73;;;16.20;;
22160;SDS011;49035;48.812;11.762;2022-12-18T11:38:17;31.03;;;15.83;;
22160;SDS011;49035;48.812;11.762;2022-12-18T11:41:02;32.87;;;14.80;;
22160;SDS011;49035;48.812;11.762;2022-12-18T11:43:58;36.93;;;13.60;;
22160;SDS011;49035;48.812;11.762;2022-12-18T11:46:37;33.47;;;15.63;;
22160;SDS011;49035;48.812;11.762;2022-12-18T11:49:24;29.33;;;15.73;;
22160;SDS011;49035;48.812;11.762;2022-12-18T11:51:55;32.90;;;16.57;;
22160;SDS011;49035;48.812;11.762;2022-12-18T11:54:27;30.33;;;14.80;;
22160;SDS011;49035;48.812;11.762;2022-12-18T11:56:57;33.33;;;14.90;;
22160;SDS011;49035;48.812;11.762;2022-12-18T12:18:53;24.23;;;12.77;;
22160;SDS011;49035;48.812;11.762;2022-12-18T12:24:11;29.27;;;13.47;;
22160;SDS011;49035;48.812;11.762;2022-12-18T12:40:21;29.80;;;14.07;;
22160;SDS011;49035;48.812;11.762;2022-12-18T12:42:54;31.23;;;14.20;;
22160;SDS011;49035;48.812;11.762;2022-12-18T12:48:40;26.87;;;14.00;;
22160;SDS011;49035;48.812;11.762;2022-12-18T12:51:26;30.67;;;14.33;;
22160;SDS011;49035;48.812;11.762;2022-12-18T12:53:54;32.03;;;17.33;;
22160;SDS011;49035;48.812;11.762;2022-12-18T12:56:22;34.87;;;17.57;;
22160;SDS011;49035;48.812;11.762;2022-12-18T12:58:57;60.73;;;33.87;;
22160;SDS011;49035;48.812;11.762;2022-12-18T13:09:23;30.40;;;16.17;;
22160;SDS011;49035;48.812;11.762;2022-12-18T13:11:49;30.67;;;14.27;;
22160;SDS011;49035;48.812;11.762;2022-12-18T13:14:37;28.10;;;13.93;;
22160;SDS011;49035;48.812;11.762;2022-12-18T13:19:49;33.83;;;14.30;;
22160;SDS011;49035;48.812;11.762;2022-12-18T13:22:21;31.10;;;15.60;;
22160;SDS011;49035;48.812;11.762;2022-12-18T13:24:48;30.80;;;14.23;;
22160;SDS011;49035;48.812;11.762;2022-12-18T13:27:59;28.97;;;13.97;;
22160;SDS011;49035;48.812;11.762;2022-12-18T13:38:21;34.13;;;15.07;;
22160;SDS011;49035;48.812;11.762;2022-12-18T13:45:49;31.33;;;14.60;;
22160;SDS011;49035;48.812;11.762;2022-12-18T13:48:26;34.47;;;14.50;;
22160;SDS011;49035;48.812;11.762;2022-12-18T13:54:13;31.37;;;14.00;;
22160;SDS011;49035;48.812;11.762;2022-12-18T13:56:23;33.97;;;14.33;;
22160;SDS011;49035;48.812;11.762;2022-12-18T13:59:10;35.20;;;15.50;;
22160;SDS011;49035;48.812;11.762;2022-12-18T14:01:43;33.27;;;14.63;;
22160;SDS011;49035;48.812;11.762;2022-12-18T14:06:49;33.10;;;15.00;;
22160;SDS011;49035;48.812;11.762;2022-12-18T14:09:19;34.27;;;15.83;;
22160;SDS011;49035;48.812;11.762;2022-12-18T14:11:50;31.00;;;15.03;;
22160;SDS011;49035;48.812;11.762;2022-12-18T14:14:17;35.13;;;14.97;;
22160;SDS011;49035;48.812;11.762;2022-12-18T14:16:43;40.00;;;16.20;;
22160;SDS011;49035;48.812;11.762;2022-12-18T14:19:15;34.53;;;15.57;;
22160;SDS011;49035;48.812;11.762;2022-12-18T14:21:49;35.53;;;15.17;;
22160;SDS011;49035;48.812;11.762;2022-12-18T14:24:17;35.97;;;14.43;;
22160;SDS011;49035;48.812;11.762;2022-12-18T14:26:44;36.77;;;15.40;;
22160;SDS011;49035;48.812;11.762;2022-12-18T14:29:18;32.13;;;13.97;;
22160;SDS011;49035;48.812;11.762;2022-12-18T14:31:46;32.77;;;15.07;;
22160;SDS011;49035;48.812;11.762;2022-12-18T14:34:28;34.57;;;14.87;;
22160;SDS011;49035;48.812;11.762;2022-12-18T14:36:54;37.37;;;18.70;;
22160;SDS011;49035;48.812;11.762;2022-12-18T14:39:21;32.43;;;15.40;;
22160;SDS011;49035;48.812;11.762;2022-12-18T14:41:48;31.13;;;15.40;;
22160;SDS011;49035;48.812;11.762;2022-12-18T14:44:14;41.30;;;18.33;;
22160;SDS011;49035;48.812;11.762;2022-12-18T14:46:40;37.67;;;16.80;;
22160;SDS011;49035;48.812;11.762;2022-12-18T14:51:58;35.00;;;15.50;;
22160;SDS011;49035;48.812;11.762;2022-12-18T14:54:28;43.13;;;16.93;;
22160;SDS011;49035;48.812;11.762;2022-12-18T14:57:03;40.90;;;16.70;;
22160;SDS011;49035;48.812;11.762;2022-12-18T14:59:50;36.87;;;16.13;;
22160;SDS011;49035;48.812;11.762;2022-12-18T15:02:23;35.63;;;16.53;;
22160;SDS011;49035;48.812;11.762;2022-12-18T15:05:04;36.77;;;16.07;;
22160;SDS011;49035;48.812;11.762;2022-12-18T15:07:50;39.20;;;17.17;;
22160;SDS011;49035;48.812;11.762;2022-12-18T15:13:20;36.93;;;16.70;;
22160;SDS011;49035;48.812;11.762;2022-12-18T15:15:48;42.47;;;18.90;;
22160;SDS011;49035;48.812;11.762;2022-12-18T15:18:21;36.27;;;17.00;;
22160;SDS011;49035;48.812;11.762;2022-12-18T15:20:53;40.07;;;16.27;;
22160;SDS011;49035;48.812;11.762;2022-12-18T15:23:38;36.47;;;16.63;;
22160;SDS011;49035;48.812;11.762;2022-12-18T15:26:18;34.97;;;16.70;;
22160;SDS011;49035;48.812;11.762;2022-12-18T15:28:55;38.33;;;17.30;;
22160;SDS011;49035;48.812;11.762;2022-12-18T15:31:24;36.80;;;15.77;;
22160;SDS011;49035;48.812;11.762;2022-12-18T15:36:21;36.80;;;14.43;;
22160;SDS011;49035;48.812;11.762;2022-12-18T15:38:52;33.07;;;14.50;;
22160;SDS011;49035;48.812;11.762;2022-12-18T15:41:20;34.13;;;15.80;;
22160;SDS011;49035;48.812;11.762;2022-12-18T15:43:50;35.13;;;16.23;;
22160;SDS011;49035;48.812;11.762;2022-12-18T15:46:17;43.17;;;17.90;;
22160;SDS011;49035;48.812;11.762;2022-12-18T15:48:48;44.47;;;18.07;;
22160;SDS011;49035;48.812;11.762;2022-12-18T15:54:24;48.83;;;19.90;;
22160;SDS011;49035;48.812;11.762;2022-12-18T15:57:09;43.43;;;18.70;;
22160;SDS011;49035;48.812;11.762;2022-12-18T15:59:47;50.17;;;21.10;;
22160;SDS011;49035;48.812;11.762;2022-12-18T16:02:14;57.67;;;26.17;;
22160;SDS011;49035;48.812;11.762;2022-12-18T16:04:42;59.63;;;26.10;;
22160;SDS011;49035;48.812;11.762;2022-12-18T16:07:08;47.83;;;22.30;;
22160;SDS011;49035;48.812;11.762;2022-12-18T16:09:34;62.87;;;22.53;;
22160;SDS011;49035;48.812;11.762;2022-12-18T16:12:00;56.23;;;22.70;;
22160;SDS011;49035;48.812;11.762;2022-12-18T16:14:27;50.83;;;20.50;;
22160;SDS011;49035;48.812;11.762;2022-12-18T16:19:22;50.57;;;21.47;;
22160;SDS011;49035;48.812;11.762;2022-12-18T16:21:48;46.10;;;20.07;;
22160;SDS011;49035;48.812;11.762;2022-12-18T16:24:16;48.00;;;19.13;;
22160;SDS011;49035;48.812;11.762;2022-12-18T16:26:44;53.00;;;19.03;;
22160;SDS011;49035;48.812;11.762;2022-12-18T16:29:10;51.67;;;19.57;;